Time;durP1;ratioP1;P1;durP2;ratioP2;P2;SDS_P1;SDS_P2;PMS_P1;PMS_P2;Temp;Humidity;BMP_temperature;BMP_pressure;BME280_temperature;BME280_humidity;BME280_pressure;Samples;Min_cycle;Max_cycle;Signal;HPM_P1;HPM_P2
2023/10/02 00:02:40;;;;;;;6.70;3.45;;;;;;;13.12;66.61;100583.63;10483252;28;20040;-59
2023/10/02 00:07:42;;;;;;;6.40;2.80;;;;;;;13.08;66.69;100599.66;10454661;28;20315;-59
2023/10/02 00:12:58;;;;;;;7.60;3.35;;;;;;;13.09;66.37;100596.94;10469607;28;20068;-60
2023/10/02 00:18:00;;;;;;;6.82;3.15;;;;;;;13.01;66.55;100599.19;10476673;28;20037;-59
2023/10/02 00:23:04;;;;;;;7.10;3.20;;;;;;;12.87;66.33;100597.38;10476295;28;20037;-59
2023/10/02 00:28:10;;;;;;;6.97;2.80;;;;;;;12.83;66.66;100602.88;10469071;28;20086;-59
2023/10/02 00:33:12;;;;;;;6.60;2.58;;;;;;;12.77;66.58;100603.25;10474743;28;20051;-59
2023/10/02 00:38:14;;;;;;;6.70;3.17;;;;;;;12.77;66.42;100601.47;10471686;28;20044;-59
2023/10/02 00:43:34;;;;;;;7.43;2.95;;;;;;;12.73;66.43;100592.09;10471336;28;20041;-59
2023/10/02 00:48:37;;;;;;;12.43;4.20;;;;;;;12.71;66.55;100588.72;10454307;28;20555;-59
2023/10/02 00:53:53;;;;;;;7.15;2.97;;;;;;;12.73;66.42;100585.97;10449366;28;20062;-59
2023/10/02 00:59:00;;;;;;;6.88;2.80;;;;;;;12.67;66.53;100596.84;10467029;28;20420;-59
2023/10/02 01:04:10;;;;;;;10.18;2.70;;;;;;;12.63;66.27;100590.94;10466480;28;20044;-59
2023/10/02 01:09:18;;;;;;;5.43;2.63;;;;;;;12.58;66.43;100590.34;10466362;28;20415;-59
2023/10/02 01:14:40;;;;;;;3.97;2.03;;;;;;;12.51;66.31;100591.63;10467667;28;20040;-59
2023/10/02 01:19:57;;;;;;;39.45;3.78;;;;;;;12.41;66.65;100589.63;10471652;28;20044;-59
2023/10/02 01:25:13;;;;;;;6.38;2.25;;;;;;;12.40;66.84;100586.13;10452753;28;20036;-59
2023/10/02 01:30:23;;;;;;;11.80;2.72;;;;;;;12.39;66.80;100583.63;10450054;28;20102;-59
2023/10/02 01:35:29;;;;;;;19.48;3.10;;;;;;;12.28;66.60;100583.34;10467097;28;20788;-59
2023/10/02 01:40:33;;;;;;;5.93;2.55;;;;;;;12.24;66.67;100579.19;10467679;28;20037;-59
2023/10/02 01:45:35;;;;;;;5.93;2.45;;;;;;;12.28;66.57;100578.09;10477188;28;20047;-59
2023/10/02 01:50:37;;;;;;;14.25;2.40;;;;;;;12.28;66.35;100568.47;10448771;28;20048;-59
2023/10/02 01:55:40;;;;;;;7.00;2.63;;;;;;;12.24;66.61;100569.56;10468145;28;20548;-59
2023/10/02 02:00:45;;;;;;;7.25;2.53;;;;;;;12.22;66.55;100563.56;10435772;28;20045;-59
2023/10/02 02:05:49;;;;;;;6.95;2.28;;;;;;;12.10;66.92;100564.25;10489756;28;20305;-59
2023/10/02 02:10:54;;;;;;;15.65;3.00;;;;;;;11.97;66.68;100564.06;10479397;28;20587;-59
2023/10/02 02:16:07;;;;;;;12.43;2.42;;;;;;;11.98;66.71;100555.28;10463282;28;20093;-59
2023/10/02 02:21:14;;;;;;;4.88;2.10;;;;;;;11.98;66.71;100559.69;10477433;28;20047;-59
2023/10/02 02:26:22;;;;;;;6.75;2.47;;;;;;;12.06;66.47;100565.34;10461557;28;20131;-59
2023/10/02 02:31:31;;;;;;;12.02;2.95;;;;;;;12.02;66.66;100566.44;10471559;28;20215;-59
2023/10/02 02:36:35;;;;;;;7.75;2.45;;;;;;;12.08;66.72;100566.09;10480145;28;20194;-59
2023/10/02 02:41:37;;;;;;;6.40;2.35;;;;;;;12.10;66.46;100564.25;10473963;28;20044;-59
2023/10/02 02:46:53;;;;;;;11.27;3.05;;;;;;;12.12;66.54;100573.72;10455537;28;20072;-59
2023/10/02 02:51:56;;;;;;;3.97;1.88;;;;;;;12.12;66.50;100565.00;10470071;28;20049;-59
2023/10/02 02:57:00;;;;;;;6.75;2.58;;;;;;;12.13;66.69;100564.91;10482882;28;20071;-59
2023/10/02 03:02:21;;;;;;;13.23;2.45;;;;;;;12.04;66.49;100559.34;10463511;28;20132;-59
2023/10/02 03:07:29;;;;;;;51.05;3.10;;;;;;;11.79;66.65;100559.84;10476633;28;20423;-58
2023/10/02 03:12:31;;;;;;;7.45;2.20;;;;;;;11.83;66.96;100557.91;10474270;28;20405;-58
2023/10/02 03:17:36;;;;;;;50.67;4.60;;;;;;;11.94;66.53;100555.53;10475660;28;20129;-58
2023/10/02 03:22:38;;;;;;;22.02;2.72;;;;;;;11.90;66.72;100562.75;10457528;28;20048;-59
2023/10/02 03:27:40;;;;;;;5.15;2.10;;;;;;;12.00;66.60;100568.31;10468083;28;20845;-59
2023/10/02 03:32:45;;;;;;;6.75;2.13;;;;;;;12.12;66.59;100557.13;10445364;28;20394;-59
2023/10/02 03:37:51;;;;;;;4.45;1.90;;;;;;;12.24;66.34;100566.06;10461454;28;20139;-59
2023/10/02 03:42:55;;;;;;;5.07;2.30;;;;;;;12.26;66.14;100567.69;10472612;28;20512;-59
2023/10/02 03:48:02;;;;;;;46.72;3.70;;;;;;;12.17;66.39;100573.47;10472080;28;20754;-59
2023/10/02 03:53:12;;;;;;;20.48;2.25;;;;;;;12.29;66.35;100556.22;10484322;28;20550;-59
2023/10/02 03:58:16;;;;;;;7.03;2.33;;;;;;;12.32;66.34;100554.25;10471875;28;20090;-59
2023/10/02 04:03:18;;;;;;;4.85;2.08;;;;;;;12.42;66.17;100544.94;10471543;28;20033;-59
2023/10/02 04:08:31;;;;;;;5.85;2.22;;;;;;;12.51;66.11;100539.16;10474596;28;20050;-59
2023/10/02 04:13:38;;;;;;;4.18;2.20;;;;;;;12.42;66.23;100541.44;10451544;28;20044;-59
2023/10/02 04:18:49;;;;;;;15.65;2.53;;;;;;;12.40;66.32;100546.78;10471171;28;20123;-59
2023/10/02 04:23:53;;;;;;;38.15;3.17;;;;;;;12.32;66.35;100542.91;10468328;28;20783;-59
2023/10/02 04:29:14;;;;;;;4.93;2.30;;;;;;;12.37;66.48;100547.00;10451775;28;20094;-59
2023/10/02 04:44:44;;;;;;;35.65;3.42;;;;;;;12.11;66.53;100545.78;10477850;28;20044;-59
2023/10/02 04:55:10;;;;;;;4.78;2.25;;;;;;;12.22;66.42;100552.22;10469166;28;20080;-59
2023/10/02 05:00:19;;;;;;;4.97;2.22;;;;;;;12.28;66.18;100544.00;10467259;28;20040;-59
2023/10/02 05:05:23;;;;;;;25.90;2.97;;;;;;;12.29;66.41;100548.34;10470953;28;20041;-59
2023/10/02 05:10:28;;;;;;;4.32;2.10;;;;;;;12.30;66.47;100540.38;10455880;28;20044;-59
2023/10/02 05:15:31;;;;;;;20.75;2.70;;;;;;;12.30;66.31;100539.53;10468434;28;20570;-59
2023/10/02 05:20:38;;;;;;;28.25;3.20;;;;;;;12.23;66.69;100533.78;10472938;28;20244;-59
2023/10/02 05:25:41;;;;;;;9.48;3.05;;;;;;;12.27;66.60;100551.03;10450290;28;20496;-59
2023/10/02 05:30:43;;;;;;;23.08;3.33;;;;;;;12.31;66.61;100547.34;10469369;28;20377;-59
2023/10/02 05:35:46;;;;;;;13.05;2.22;;;;;;;12.46;66.47;100540.34;10467601;28;20115;-59
2023/10/02 05:40:48;;;;;;;7.53;2.42;;;;;;;12.43;66.62;100546.63;10470339;28;20049;-59
2023/10/02 05:45:50;;;;;;;7.65;2.53;;;;;;;12.41;66.80;100547.66;10467309;28;20570;-59
2023/10/02 05:51:08;;;;;;;54.00;3.08;;;;;;;12.50;67.06;100542.72;10476239;28;20048;-59
2023/10/02 06:01:26;;;;;;;28.83;3.10;;;;;;;12.31;66.98;100552.59;10473168;28;20505;-59
2023/10/02 06:06:35;;;;;;;5.57;2.50;;;;;;;12.52;66.90;100550.47;10450243;28;20033;-60
2023/10/02 06:17:01;;;;;;;9.18;2.42;;;;;;;12.62;66.27;100562.97;10468630;28;20753;-60
2023/10/02 06:22:04;;;;;;;36.70;2.95;;;;;;;12.67;66.20;100560.09;10452873;28;20094;-59
2023/10/02 06:27:14;;;;;;;8.73;2.60;;;;;;;12.74;66.01;100566.69;10464974;28;20166;-59
2023/10/02 06:32:19;;;;;;;10.20;2.53;;;;;;;12.89;66.33;100564.00;10491394;28;20171;-61
2023/10/02 06:37:30;;;;;;;25.58;3.10;;;;;;;13.10;66.10;100554.00;10468030;28;20067;-61
2023/10/02 06:42:32;;;;;;;24.40;2.83;;;;;;;13.04;65.97;100571.91;10460900;28;20546;-61
2023/10/02 06:47:34;;;;;;;15.07;2.50;;;;;;;13.04;65.89;100564.88;10464277;28;20814;-61
2023/10/02 06:52:37;;;;;;;40.25;2.90;;;;;;;12.98;66.26;100566.06;10439255;28;20416;-61
2023/10/02 06:57:49;;;;;;;70.78;5.10;;;;;;;13.05;66.14;100570.97;10454229;28;20045;-61
2023/10/02 07:02:57;;;;;;;56.25;3.33;;;;;;;13.07;66.09;100571.72;10443273;28;20125;-61
2023/10/02 07:08:17;;;;;;;71.95;3.97;;;;;;;13.30;66.00;100566.78;10450998;28;20044;-61
2023/10/02 07:13:20;;;;;;;48.72;3.90;;;;;;;13.38;65.56;100575.03;10468212;28;21503;-61
2023/10/02 07:18:37;;;;;;;27.67;3.03;;;;;;;13.72;65.72;100569.41;10453331;28;20548;-61
2023/10/02 07:23:40;;;;;;;77.68;4.78;;;;;;;13.89;64.92;100573.59;10471598;28;20041;-61
2023/10/02 07:28:50;;;;;;;18.73;3.58;;;;;;;14.01;65.15;100570.19;10453765;28;20045;-61
2023/10/02 07:33:55;;;;;;;;;;;;;;;14.15;64.96;100566.66;10465343;28;20050;-61
2023/10/02 07:39:00;;;;;;;54.78;5.25;;;;;;;14.29;64.61;100561.34;10472054;28;19923;-61
2023/10/02 07:44:08;;;;;;;24.75;3.78;;;;;;;14.17;64.46;100570.91;10444472;28;20071;-61
2023/10/02 07:49:10;;;;;;;52.20;5.07;;;;;;;14.25;64.14;100573.88;10449045;28;20472;-61
2023/10/02 07:54:13;;;;;;;35.03;3.53;;;;;;;14.36;63.87;100571.41;10468333;28;20543;-61
2023/10/02 07:59:18;;;;;;;16.48;2.92;;;;;;;14.55;63.87;100565.81;10461082;28;20048;-61
2023/10/02 08:04:22;;;;;;;10.80;2.97;;;;;;;14.72;63.76;100570.78;10466685;28;20476;-61
2023/10/02 08:09:38;;;;;;;5.32;2.90;;;;;;;14.95;63.86;100571.88;10441692;28;20045;-61
2023/10/02 08:14:42;;;;;;;11.45;2.58;;;;;;;15.02;63.51;100565.25;10464030;28;20044;-61
2023/10/02 08:19:54;;;;;;;47.88;4.18;;;;;;;15.11;62.90;100564.63;10478008;28;20047;-61
2023/10/02 08:24:57;;;;;;;25.13;3.40;;;;;;;15.13;63.23;100566.22;10463083;28;20505;-61
2023/10/02 08:30:17;;;;;;;5.55;2.80;;;;;;;15.07;63.10;100568.41;10468213;28;20128;-61
2023/10/02 08:35:19;;;;;;;6.97;3.03;;;;;;;15.20;63.38;100559.59;10465237;28;20044;-61
2023/10/02 08:40:24;;;;;;;7.60;3.63;;;;;;;15.71;62.87;100564.81;10466564;28;20401;-61
2023/10/02 08:45:26;;;;;;;6.78;2.95;;;;;;;15.59;62.49;100563.06;10471072;28;20040;-61
2023/10/02 08:50:28;;;;;;;8.20;3.28;;;;;;;15.52;62.59;100557.38;10471173;28;20637;-61
2023/10/02 08:55:34;;;;;;;6.20;3.13;;;;;;;16.23;62.15;100553.03;10463193;28;20060;-61
2023/10/02 09:00:38;;;;;;;8.50;3.72;;;;;;;16.97;60.78;100543.97;10451773;28;20575;-61
2023/10/02 09:05:49;;;;;;;5.63;3.10;;;;;;;17.21;59.83;100542.09;10466141;28;20050;-62
2023/10/02 09:10:58;;;;;;;5.85;3.15;;;;;;;17.38;59.75;100539.00;10465024;28;20044;-61
2023/10/02 09:16:10;;;;;;;10.38;4.15;;;;;;;17.46;59.00;100531.31;10468611;28;20052;-61
2023/10/02 09:21:16;;;;;;;10.40;3.97;;;;;;;17.69;59.41;100526.81;10441580;28;20051;-62
2023/10/02 09:26:24;;;;;;;8.85;3.53;;;;;;;18.09;58.11;100516.53;10446400;28;20105;-61
2023/10/02 09:31:30;;;;;;;9.15;3.45;;;;;;;18.18;58.78;100513.13;10467471;28;20041;-61
2023/10/02 09:36:52;;;;;;;8.57;3.63;;;;;;;18.63;57.81;100501.38;10446246;28;20056;-62
2023/10/02 09:42:14;;;;;;;8.88;3.58;;;;;;;18.67;57.71;100494.03;10461185;28;20057;-61
2023/10/02 09:47:20;;;;;;;7.25;3.85;;;;;;;19.07;56.98;100489.69;10470858;28;20037;-61
2023/10/02 09:52:33;;;;;;;12.00;3.67;;;;;;;19.34;56.04;100484.63;10457882;28;20625;-61
2023/10/02 09:57:49;;;;;;;10.20;4.05;;;;;;;19.36;56.14;100486.19;10474288;28;20052;-61
2023/10/02 10:03:23;;;;;;;8.18;3.45;;;;;;;19.75;54.68;100478.31;10466156;28;20196;-61
2023/10/02 10:08:29;;;;;;;5.95;2.97;;;;;;;20.09;55.22;100472.53;10462970;28;20061;-61
2023/10/02 10:13:33;;;;;;;11.02;3.45;;;;;;;20.09;53.96;100459.25;10440281;28;20048;-62
2023/10/02 10:24:31;;;;;;;7.55;3.65;;;;;;;19.71;53.55;100456.53;10452805;28;20127;-61
2023/10/02 10:29:41;;;;;;;12.75;3.72;;;;;;;19.99;53.33;100449.63;10457608;28;20050;-61
2023/10/02 10:35:14;;;;;;;8.80;3.95;;;;;;;20.04;52.67;100437.63;10437437;28;20036;-61
2023/10/02 10:40:43;;;;;;;10.95;4.13;;;;;;;20.16;52.79;100438.28;10459375;28;20048;-61
2023/10/02 10:45:48;;;;;;;9.25;3.67;;;;;;;20.29;53.67;100434.38;10481225;28;20493;-61
2023/10/02 10:51:06;;;;;;;8.80;3.78;;;;;;;20.36;53.72;100426.69;10461031;28;20453;-61
2023/10/02 10:56:17;;;;;;;11.00;4.15;;;;;;;20.39;53.57;100426.41;10466808;28;20036;-61
2023/10/02 11:01:22;;;;;;;9.43;3.67;;;;;;;20.52;53.50;100431.41;10450592;28;20052;-61
2023/10/02 11:06:24;;;;;;;9.23;3.67;;;;;;;20.69;53.23;100423.56;10469795;28;20032;-61
2023/10/02 11:11:30;;;;;;;10.38;4.30;;;;;;;21.04;52.89;100421.06;10467921;28;20455;-61
2023/10/02 11:16:37;;;;;;;9.02;3.70;;;;;;;21.16;52.66;100410.22;10472706;28;20059;-61
2023/10/02 11:21:59;;;;;;;12.70;3.72;;;;;;;21.38;52.85;100407.19;10490731;28;20047;-61
2023/10/02 11:27:07;;;;;;;39.05;4.28;;;;;;;21.54;51.31;100399.38;10454006;28;20115;-61
2023/10/02 11:32:23;;;;;;;11.32;4.13;;;;;;;21.74;52.04;100383.13;10466551;28;20044;-61
2023/10/02 11:37:27;;;;;;;10.13;4.65;;;;;;;21.95;51.54;100376.66;10459636;28;20057;-61
2023/10/02 11:42:30;;;;;;;10.75;4.65;;;;;;;22.07;51.32;100360.31;10456097;28;20513;-61
2023/10/02 11:47:32;;;;;;;11.25;3.53;;;;;;;22.12;50.98;100351.88;10458663;28;20033;-61
2023/10/02 11:52:34;;;;;;;9.38;3.97;;;;;;;22.35;50.89;100345.84;10463091;28;20051;-61
2023/10/02 11:57:37;;;;;;;10.38;4.03;;;;;;;22.44;50.65;100339.59;10450937;28;20376;-61
2023/10/02 12:02:39;;;;;;;10.65;4.00;;;;;;;22.64;50.79;100333.03;10466592;28;20523;-61
2023/10/02 12:07:43;;;;;;;9.95;4.22;;;;;;;22.83;50.61;100325.81;10465658;28;20518;-61
2023/10/02 12:12:45;;;;;;;9.65;4.00;;;;;;;23.03;50.00;100324.56;10468752;28;20056;-61
2023/10/02 12:17:48;;;;;;;7.90;3.50;;;;;;;23.17;49.94;100321.25;10475036;28;20078;-61
2023/10/02 12:22:50;;;;;;;8.18;3.85;;;;;;;23.35;49.98;100308.66;10474933;28;20048;-61
2023/10/02 12:27:53;;;;;;;9.73;4.13;;;;;;;23.48;49.73;100301.84;10454017;28;20063;-61
2023/10/02 12:32:55;;;;;;;9.13;3.70;;;;;;;23.60;49.28;100294.34;10461100;28;20582;-61
2023/10/02 12:37:58;;;;;;;11.32;4.35;;;;;;;23.86;48.83;100280.84;10472560;28;20051;-61
2023/10/02 12:43:01;;;;;;;11.32;3.92;;;;;;;24.00;48.31;100274.81;10464126;28;20912;-61
2023/10/02 12:48:06;;;;;;;8.68;4.03;;;;;;;24.08;47.87;100259.59;10461490;28;20049;-61
2023/10/02 12:53:10;;;;;;;9.00;3.47;;;;;;;24.34;47.69;100255.88;10460754;28;20052;-61
2023/10/02 12:58:13;;;;;;;10.00;4.05;;;;;;;24.50;47.57;100245.13;10476913;28;20149;-61
2023/10/02 13:03:15;;;;;;;7.57;3.63;;;;;;;24.60;47.92;100237.72;10466982;28;20475;-61
2023/10/02 13:08:17;;;;;;;9.68;3.80;;;;;;;24.81;47.23;100232.66;10453406;28;20488;-61
2023/10/02 13:13:23;;;;;;;8.52;3.40;;;;;;;25.06;47.63;100220.81;10462690;28;20082;-61
2023/10/02 13:18:27;;;;;;;7.72;3.50;;;;;;;25.27;47.15;100212.94;10467343;28;20048;-61
2023/10/02 13:23:29;;;;;;;11.07;3.78;;;;;;;25.29;46.40;100210.91;10461068;28;20036;-61
2023/10/02 13:28:34;;;;;;;9.18;3.92;;;;;;;25.40;46.40;100210.53;10468176;28;20532;-61
2023/10/02 13:33:36;;;;;;;12.38;3.78;;;;;;;25.42;45.94;100205.81;10451834;28;20539;-61
2023/10/02 13:38:41;;;;;;;8.77;4.13;;;;;;;25.48;45.86;100198.91;10467214;28;20375;-61
2023/10/02 13:43:44;;;;;;;8.73;3.67;;;;;;;25.54;45.19;100195.50;10440915;28;20424;-61
2023/10/02 13:48:48;;;;;;;8.25;3.47;;;;;;;25.50;45.95;100187.00;10477108;28;20048;-61
2023/10/02 13:53:53;;;;;;;8.77;4.03;;;;;;;25.56;45.38;100191.63;10469984;28;20356;-61
2023/10/02 13:58:58;;;;;;;7.68;3.65;;;;;;;25.61;46.85;100188.41;10467446;28;20430;-61
2023/10/02 14:04:03;;;;;;;9.43;3.83;;;;;;;25.67;45.30;100187.69;10465667;28;20074;-61
2023/10/02 14:09:10;;;;;;;8.00;3.63;;;;;;;26.04;45.52;100182.28;10484397;28;20045;-61
2023/10/02 14:14:12;;;;;;;11.40;3.80;;;;;;;26.16;43.43;100174.63;10445464;28;20492;-61
2023/10/02 14:19:15;;;;;;;13.07;4.18;;;;;;;26.33;44.13;100173.38;10470634;28;20048;-61
2023/10/02 14:24:17;;;;;;;10.27;3.78;;;;;;;26.39;42.91;100164.59;10457946;28;20048;-61
2023/10/02 14:29:19;;;;;;;12.20;4.63;;;;;;;26.43;43.02;100158.66;10464810;28;20040;-61
2023/10/02 14:34:23;;;;;;;9.65;3.80;;;;;;;26.43;44.14;100153.31;10465548;28;20415;-61
2023/10/02 14:39:30;;;;;;;10.27;4.00;;;;;;;26.40;44.06;100153.69;10471480;28;20059;-61
2023/10/02 14:44:35;;;;;;;10.57;4.30;;;;;;;26.16;44.15;100158.53;10449289;28;20496;-61
2023/10/02 14:49:38;;;;;;;10.07;3.65;;;;;;;26.12;45.11;100154.56;10444921;28;20057;-61
2023/10/02 14:54:40;;;;;;;9.75;3.95;;;;;;;26.14;45.37;100150.66;10453177;28;20039;-61
2023/10/02 14:59:42;;;;;;;10.93;4.40;;;;;;;25.99;46.31;100143.66;10464529;28;20412;-61
2023/10/02 15:04:44;;;;;;;10.75;4.18;;;;;;;25.72;45.15;100140.56;10459861;28;20044;-61
2023/10/02 15:09:46;;;;;;;11.98;4.85;;;;;;;25.59;45.93;100139.56;10456557;28;20390;-60
2023/10/02 15:14:49;;;;;;;10.15;3.72;;;;;;;25.52;46.28;100133.25;10459604;28;20045;-61
2023/10/02 15:19:51;;;;;;;11.55;4.55;;;;;;;25.46;46.36;100132.13;10462303;28;20041;-61
2023/10/02 15:24:53;;;;;;;13.77;4.97;;;;;;;25.23;46.04;100134.00;10445756;28;20044;-61
2023/10/02 15:29:55;;;;;;;12.95;4.95;;;;;;;25.16;46.39;100133.06;10465792;28;20511;-61
2023/10/02 15:34:57;;;;;;;12.82;4.07;;;;;;;24.98;46.62;100127.16;10479027;28;20053;-61
2023/10/02 15:40:07;;;;;;;8.70;3.60;;;;;;;24.87;47.53;100122.25;10463668;28;20383;-61
2023/10/02 15:45:14;;;;;;;11.68;4.40;;;;;;;24.61;47.65;100113.72;10468797;28;20059;-61
2023/10/02 15:50:23;;;;;;;14.18;4.50;;;;;;;24.38;48.14;100112.84;10465979;28;20043;-61
2023/10/02 15:55:28;;;;;;;14.60;5.13;;;;;;;24.21;48.75;100102.22;10477484;28;20371;-61
2023/10/02 16:00:31;;;;;;;10.73;4.55;;;;;;;23.98;49.22;100095.16;10470206;28;20040;-61
2023/10/02 16:05:34;;;;;;;14.43;5.15;;;;;;;23.68;49.82;100088.72;10438802;28;20048;-60
2023/10/02 16:10:36;;;;;;;10.65;4.18;;;;;;;23.33;50.25;100089.13;10473176;28;20202;-60
2023/10/02 16:15:39;;;;;;;13.77;5.18;;;;;;;23.06;50.88;100092.16;10466257;28;20570;-61
2023/10/02 16:20:41;;;;;;;12.90;4.60;;;;;;;22.85;51.51;100095.31;10471113;28;21163;-61
2023/10/02 16:25:44;;;;;;;11.93;5.25;;;;;;;22.65;51.08;100097.44;10451427;28;20081;-61
2023/10/02 16:30:46;;;;;;;13.15;4.28;;;;;;;22.50;51.32;100093.75;10433603;28;20040;-61
2023/10/02 16:35:48;;;;;;;15.75;5.00;;;;;;;22.31;51.04;100091.34;10445509;28;20163;-61
2023/10/02 16:40:50;;;;;;;11.65;4.40;;;;;;;22.20;50.68;100096.16;10486345;28;20054;-61
2023/10/02 16:45:53;;;;;;;15.40;4.68;;;;;;;21.96;51.06;100094.22;10468891;28;20075;-60
2023/10/02 16:50:55;;;;;;;12.02;4.55;;;;;;;21.67;52.30;100099.06;10443859;28;20036;-61
2023/10/02 16:56:00;;;;;;;21.42;5.60;;;;;;;21.40;52.62;100091.25;10463550;28;20044;-61
2023/10/02 17:01:09;;;;;;;18.45;5.47;;;;;;;21.15;53.53;100089.38;10459971;28;20053;-62
2023/10/02 17:06:13;;;;;;;17.02;5.10;;;;;;;20.98;53.47;100102.56;10463823;28;20064;-61
2023/10/02 17:11:20;;;;;;;13.20;4.90;;;;;;;20.68;54.49;100102.13;10460711;28;20045;-62
2023/10/02 17:16:22;;;;;;;12.13;4.55;;;;;;;20.42;55.30;100106.47;10480552;28;20403;-60
2023/10/02 17:21:31;;;;;;;12.40;4.78;;;;;;;20.21;56.66;100104.09;10442743;28;20100;-60
2023/10/02 17:26:36;;;;;;;11.38;4.55;;;;;;;19.95;57.11;100111.09;10455744;28;20059;-60
2023/10/02 17:31:38;;;;;;;10.05;4.30;;;;;;;19.74;57.80;100126.34;10441839;28;20044;-60
2023/10/02 17:36:40;;;;;;;15.10;5.28;;;;;;;19.61;57.85;100120.50;10463423;28;20626;-60
2023/10/02 17:41:42;;;;;;;22.90;5.20;;;;;;;19.51;57.99;100122.34;10442066;28;20052;-60
2023/10/02 17:46:45;;;;;;;24.00;6.00;;;;;;;19.30;58.53;100111.94;10464747;28;20080;-60
2023/10/02 17:51:47;;;;;;;16.00;5.07;;;;;;;19.15;59.35;100113.38;10458353;28;20048;-60
2023/10/02 17:56:49;;;;;;;10.00;4.10;;;;;;;19.04;59.71;100118.81;10433677;28;20048;-60
2023/10/02 18:01:51;;;;;;;13.15;4.45;;;;;;;18.91;60.12;100113.75;10463113;28;20531;-60
2023/10/02 18:06:54;;;;;;;13.00;4.57;;;;;;;18.79;60.24;100122.81;10464098;28;20780;-60
2023/10/02 18:11:56;;;;;;;13.15;4.35;;;;;;;18.57;61.01;100117.78;10448500;28;20056;-60
2023/10/02 18:16:59;;;;;;;11.35;4.47;;;;;;;18.38;61.49;100109.84;10458341;28;20078;-60
2023/10/02 18:22:01;;;;;;;11.02;4.13;;;;;;;18.31;61.63;100111.34;10472463;28;20036;-60
2023/10/02 18:27:03;;;;;;;15.00;5.15;;;;;;;18.24;61.63;100104.94;10475161;28;20181;-60
2023/10/02 18:32:05;;;;;;;10.65;4.28;;;;;;;18.12;62.11;100112.09;10447621;28;20514;-60
2023/10/02 18:37:07;;;;;;;10.82;3.95;;;;;;;18.01;62.26;100103.44;10465513;28;20291;-60
2023/10/02 18:42:09;;;;;;;11.98;4.38;;;;;;;17.88;62.37;100105.47;10466818;28;20063;-60
2023/10/02 18:47:19;;;;;;;12.38;4.55;;;;;;;17.74;62.81;100109.31;10468286;28;20044;-62
2023/10/02 18:52:21;;;;;;;13.20;4.07;;;;;;;17.59;63.11;100108.84;10456101;28;20147;-60
2023/10/02 18:57:24;;;;;;;11.50;4.55;;;;;;;17.59;63.22;100097.41;10444927;28;20055;-60
2023/10/02 19:02:28;;;;;;;13.32;4.18;;;;;;;17.48;63.50;100094.88;10462404;28;20654;-61
2023/10/02 19:07:31;;;;;;;10.63;4.43;;;;;;;17.41;63.46;100101.63;10442685;28;20420;-60
2023/10/02 19:12:33;;;;;;;11.27;4.25;;;;;;;17.26;63.73;100095.00;10471968;28;20052;-60
2023/10/02 19:17:35;;;;;;;13.10;4.75;;;;;;;17.10;64.31;100095.41;10444287;28;20052;-60
2023/10/02 19:22:39;;;;;;;13.88;4.60;;;;;;;17.01;64.29;100083.84;10467613;28;20041;-60
2023/10/02 19:27:42;;;;;;;18.45;6.32;;;;;;;16.98;64.50;100088.53;10448352;28;20139;-60
2023/10/02 19:32:45;;;;;;;15.52;5.53;;;;;;;16.89;64.22;100082.22;10468973;28;20040;-60
2023/10/02 19:37:47;;;;;;;12.02;4.88;;;;;;;16.68;64.31;100073.44;10473339;28;20060;-60
2023/10/02 19:42:49;;;;;;;15.73;4.82;;;;;;;16.51;64.56;100083.72;10471174;28;20052;-60
2023/10/02 19:47:50;;;;;;;12.15;4.05;;;;;;;16.52;64.70;100061.63;10450899;28;20485;-60
2023/10/02 19:52:54;;;;;;;8.68;3.85;;;;;;;16.48;65.00;100065.47;10471164;28;20111;-60
2023/10/02 19:57:58;;;;;;;22.00;5.28;;;;;;;16.45;64.98;100065.72;10468585;28;20048;-60
2023/10/02 20:03:01;;;;;;;11.55;4.50;;;;;;;16.40;65.02;100058.16;10489770;28;20573;-60
2023/10/02 20:08:04;;;;;;;10.90;4.93;;;;;;;16.08;65.45;100042.28;10468142;28;20141;-60
2023/10/02 20:13:07;;;;;;;11.57;4.28;;;;;;;16.04;65.37;100040.84;10474966;28;20048;-60
2023/10/02 20:18:11;;;;;;;13.45;4.43;;;;;;;16.05;65.65;100034.63;10460901;28;20358;-60
2023/10/02 20:23:16;;;;;;;13.48;4.40;;;;;;;16.10;65.73;100031.63;10483846;28;20055;-59
2023/10/02 20:28:21;;;;;;;10.02;4.63;;;;;;;16.10;65.59;100034.25;10453875;28;20852;-60
2023/10/02 20:33:25;;;;;;;9.23;4.20;;;;;;;16.08;65.27;100029.09;10474214;28;20531;-60
2023/10/02 20:38:27;;;;;;;14.82;5.43;;;;;;;16.06;65.42;100022.28;10484668;28;20141;-60
2023/10/02 20:43:29;;;;;;;14.63;6.63;;;;;;;15.89;65.25;100021.00;10474943;28;20109;-60
2023/10/02 20:48:34;;;;;;;14.50;5.47;;;;;;;15.68;65.80;100017.44;10476144;28;20561;-60
2023/10/02 20:53:36;;;;;;;9.38;4.03;;;;;;;15.56;66.19;100007.84;10482662;28;20110;-60
2023/10/02 20:58:38;;;;;;;15.95;4.85;;;;;;;15.42;66.33;100008.06;10473543;28;20204;-60
2023/10/02 21:03:41;;;;;;;12.63;4.15;;;;;;;15.41;66.46;100003.75;10467818;28;20055;-60
2023/10/02 21:08:43;;;;;;;15.38;5.15;;;;;;;15.46;66.53;99992.84;10472037;28;20039;-60
2023/10/02 21:13:45;;;;;;;15.85;5.63;;;;;;;15.49;66.38;99988.19;10456305;28;20400;-60
2023/10/02 21:18:48;;;;;;;10.25;4.45;;;;;;;15.48;66.29;99983.88;10469835;28;20044;-60
2023/10/02 21:23:50;;;;;;;10.05;4.38;;;;;;;15.43;66.18;99996.56;10453885;28;20446;-60
2023/10/02 21:28:52;;;;;;;14.75;5.65;;;;;;;15.38;66.05;99989.03;10469604;28;20051;-60
2023/10/02 21:33:54;;;;;;;17.30;4.75;;;;;;;15.33;66.29;99995.59;10469488;28;20045;-60
2023/10/02 21:38:56;;;;;;;13.48;4.57;;;;;;;15.25;66.05;99982.19;10476205;28;20076;-60
2023/10/02 21:43:58;;;;;;;9.15;4.65;;;;;;;15.21;66.41;99972.84;10448059;28;20171;-60
2023/10/02 21:49:00;;;;;;;12.30;5.05;;;;;;;15.05;66.12;99980.25;10465637;28;20240;-60
2023/10/02 21:54:03;;;;;;;10.45;4.30;;;;;;;14.94;66.17;99980.28;10472062;28;20428;-60
2023/10/02 21:59:05;;;;;;;12.20;4.45;;;;;;;14.97;66.38;99972.13;10471580;28;20292;-60
2023/10/02 22:04:07;;;;;;;11.90;5.28;;;;;;;14.92;66.52;99963.75;10478356;28;20047;-60
2023/10/02 22:09:11;;;;;;;13.88;4.90;;;;;;;14.84;66.28;99956.41;10474510;28;20193;-60
2023/10/02 22:14:15;;;;;;;10.23;3.63;;;;;;;14.58;66.81;99954.94;10467166;28;20481;-60
2023/10/02 22:19:18;;;;;;;11.52;4.85;;;;;;;14.47;66.60;99947.00;10455429;28;20135;-60
2023/10/02 22:24:21;;;;;;;8.50;4.18;;;;;;;14.40;66.89;99944.00;10448503;28;20049;-60
2023/10/02 22:29:24;;;;;;;11.18;4.35;;;;;;;14.52;67.02;99942.25;10468436;28;20841;-60
2023/10/02 22:34:30;;;;;;;13.27;5.22;;;;;;;14.59;66.62;99939.03;10449221;28;20470;-60
2023/10/02 22:39:43;;;;;;;14.55;4.85;;;;;;;14.56;66.46;99928.75;10468678;28;20406;-60
2023/10/02 22:44:45;;;;;;;12.35;4.43;;;;;;;14.54;66.36;99922.75;10469580;28;20079;-60
2023/10/02 22:49:47;;;;;;;13.55;4.70;;;;;;;14.32;66.67;99921.84;10472561;28;20036;-60
2023/10/02 22:54:49;;;;;;;10.98;4.13;;;;;;;14.28;66.76;99909.88;10471362;28;20045;-60
2023/10/02 22:59:54;;;;;;;11.88;4.85;;;;;;;14.15;66.84;99915.19;10478629;28;20209;-60
2023/10/02 23:04:56;;;;;;;12.23;4.20;;;;;;;14.21;66.67;99914.75;10471744;28;20065;-60
2023/10/02 23:09:59;;;;;;;11.23;4.32;;;;;;;14.31;66.57;99909.63;10473546;28;20041;-60
2023/10/02 23:15:01;;;;;;;12.32;4.05;;;;;;;14.18;66.50;99906.25;10473111;28;20044;-60
2023/10/02 23:20:05;;;;;;;8.95;3.53;;;;;;;14.06;66.62;99900.13;10474136;28;20049;-60
2023/10/02 23:25:13;;;;;;;9.50;3.88;;;;;;;14.07;66.89;99893.91;10489977;28;20048;-60
2023/10/02 23:30:20;;;;;;;7.00;3.53;;;;;;;14.12;66.51;99893.56;10459761;28;21077;-60
2023/10/02 23:35:23;;;;;;;13.13;4.07;;;;;;;14.02;66.70;99892.56;10487386;28;20123;-60
2023/10/02 23:40:26;;;;;;;9.63;3.92;;;;;;;13.98;66.72;99889.34;10476425;28;20504;-60
2023/10/02 23:45:33;;;;;;;9.10;3.60;;;;;;;13.99;66.77;99879.63;10475870;28;20044;-60
2023/10/02 23:50:43;;;;;;;8.45;3.58;;;;;;;13.87;66.67;99878.75;10470195;28;20064;-60